Time;durP1;ratioP1;P1;durP2;ratioP2;P2;SDS_P1;SDS_P2;PMS_P1;PMS_P2;Temp;Humidity;BMP_temperature;BMP_pressure;BME280_temperature;BME280_humidity;BME280_pressure;Samples;Min_cycle;Max_cycle;Signal;HPM_P1;HPM_P2
2021/04/19 00:01:47;;;;;;;9.55;4.60;;;18.90;43.40;;;;;;5120101;27;20077;-39
2021/04/19 00:04:14;;;;;;;7.57;4.05;;;18.90;43.40;;;;;;5117126;27;20047;-38
2021/04/19 00:06:41;;;;;;;8.50;4.28;;;18.90;43.40;;;;;;5134616;27;20074;-38
2021/04/19 00:09:08;;;;;;;8.50;4.00;;;18.90;43.40;;;;;;5132273;27;20070;-38
2021/04/19 00:11:35;;;;;;;11.02;4.55;;;18.90;43.40;;;;;;5134590;27;20039;-38
2021/04/19 00:14:03;;;;;;;8.45;4.05;;;18.90;43.40;;;;;;5133730;27;20053;-38
2021/04/19 00:16:30;;;;;;;6.72;4.20;;;18.90;43.40;;;;;;5132474;27;20100;-38
2021/04/19 00:18:56;;;;;;;8.68;4.50;;;18.90;43.40;;;;;;5134663;27;23666;-37
2021/04/19 00:21:23;;;;;;;6.40;4.28;;;18.90;43.40;;;;;;5115003;27;20122;-37
2021/04/19 00:23:50;;;;;;;13.88;4.50;;;18.90;43.40;;;;;;5133044;27;20062;-38
2021/04/19 00:26:17;;;;;;;6.40;3.95;;;18.90;43.40;;;;;;5133251;27;20092;-37
2021/04/19 00:28:43;;;;;;;6.70;3.90;;;18.90;43.40;;;;;;5132990;27;20464;-38
2021/04/19 00:31:10;;;;;;;8.23;3.67;;;18.90;43.40;;;;;;5132827;27;20506;-37
2021/04/19 00:33:37;;;;;;;9.73;4.47;;;18.90;43.40;;;;;;5134082;27;20047;-37
2021/04/19 00:36:04;;;;;;;8.35;4.28;;;18.90;43.40;;;;;;5131439;27;20047;-38
2021/04/19 00:38:31;;;;;;;9.75;4.10;;;18.90;43.40;;;;;;5111564;28;20455;-37
2021/04/19 00:40:59;;;;;;;9.77;4.30;;;18.90;43.40;;;;;;5117219;27;20043;-37
2021/04/19 00:43:26;;;;;;;7.63;4.20;;;18.90;43.40;;;;;;5115838;27;20075;-38
2021/04/19 00:46:01;;;;;;;6.65;3.83;;;18.90;43.40;;;;;;5117144;27;20043;-38
2021/04/19 00:48:30;;;;;;;9.05;4.15;;;18.90;43.40;;;;;;5117175;27;20039;-37
2021/04/19 00:50:57;;;;;;;8.15;3.88;;;18.90;43.40;;;;;;5117109;27;20131;-37
2021/04/19 00:53:26;;;;;;;8.68;4.53;;;18.90;44.00;;;;;;5117373;27;20081;-38
2021/04/19 00:55:54;;;;;;;7.68;4.03;;;18.90;43.40;;;;;;5122473;27;20423;-37
2021/04/19 00:58:25;;;;;;;9.00;4.15;;;18.90;43.40;;;;;;5131563;27;20047;-38
2021/04/19 01:00:54;;;;;;;6.72;3.67;;;18.90;43.40;;;;;;5130902;27;20130;-37
2021/04/19 01:03:21;;;;;;;9.40;4.63;;;18.90;43.40;;;;;;5131522;27;20518;-37
2021/04/19 01:05:50;;;;;;;7.90;3.47;;;18.90;43.40;;;;;;5131058;27;20043;-37
2021/04/19 01:08:17;;;;;;;7.28;4.00;;;18.90;43.40;;;;;;5132908;27;20418;-37
2021/04/19 01:10:44;;;;;;;10.88;4.00;;;18.90;43.40;;;;;;5131588;27;20103;-37
2021/04/19 01:13:11;;;;;;;8.48;4.05;;;18.90;43.40;;;;;;5132482;27;20092;-37
2021/04/19 01:15:38;;;;;;;7.32;4.47;;;18.90;43.40;;;;;;5129500;27;20047;-36
2021/04/19 01:18:05;;;;;;;9.60;3.95;;;18.90;43.40;;;;;;5134116;27;20043;-37
2021/04/19 01:20:40;;;;;;;8.38;4.05;;;18.90;43.40;;;;;;5114204;28;20054;-37
2021/04/19 01:23:08;;;;;;;6.53;3.58;;;18.90;43.40;;;;;;5115419;27;20461;-37
2021/04/19 01:25:34;;;;;;;8.75;4.47;;;18.90;43.40;;;;;;5131711;27;20075;-37
2021/04/19 01:28:01;;;;;;;8.77;3.97;;;18.90;43.40;;;;;;5132602;27;20129;-37
2021/04/19 01:30:33;;;;;;;7.70;4.07;;;18.90;43.40;;;;;;5132080;27;20051;-38
2021/04/19 01:33:01;;;;;;;8.30;3.97;;;18.90;43.40;;;;;;5131039;27;20340;-37
2021/04/19 01:35:29;;;;;;;7.15;3.70;;;18.90;43.40;;;;;;5124269;27;20051;-38
2021/04/19 01:37:56;;;;;;;10.02;4.80;;;18.90;43.40;;;;;;5128898;27;20145;-37
2021/04/19 01:40:23;;;;;;;6.88;3.58;;;18.90;43.40;;;;;;5131756;27;20093;-37
2021/04/19 01:42:49;;;;;;;7.90;3.67;;;18.90;43.40;;;;;;5131906;27;20079;-37
2021/04/19 01:45:17;;;;;;;7.55;3.53;;;18.90;43.40;;;;;;5129319;27;20039;-37
2021/04/19 01:47:44;;;;;;;7.15;4.28;;;18.90;43.40;;;;;;5129282;27;20047;-37
2021/04/19 01:50:14;;;;;;;6.82;4.57;;;18.90;43.40;;;;;;5131754;27;20047;-37
2021/04/19 01:52:42;;;;;;;10.00;4.00;;;18.90;43.40;;;;;;5132034;27;20472;-37
2021/04/19 01:55:12;;;;;;;10.40;4.15;;;18.90;43.40;;;;;;5120858;27;20036;-37
2021/04/19 01:57:41;;;;;;;7.68;4.30;;;18.90;43.40;;;;;;5116129;28;20051;-37
2021/04/19 02:00:09;;;;;;;7.60;3.90;;;18.90;43.40;;;;;;5116118;28;20151;-37
2021/04/19 02:02:58;;;;;;;7.43;3.92;;;18.90;43.40;;;;;;5122285;28;20075;-37
2021/04/19 02:05:56;;;;;;;6.53;4.00;;;18.90;43.40;;;;;;5131293;28;20047;-37
2021/04/19 02:08:45;;;;;;;7.10;3.50;;;18.90;43.40;;;;;;5119718;28;20113;-37
2021/04/19 02:11:28;;;;;;;6.95;3.72;;;18.90;43.40;;;;;;5114843;28;20503;-37
2021/04/19 02:14:27;;;;;;;6.20;3.60;;;18.90;43.40;;;;;;5130348;28;20058;-37
2021/04/19 02:17:19;;;;;;;8.18;3.55;;;18.90;43.50;;;;;;5029763;28;20080;-37
2021/04/19 02:19:49;;;;;;;5.90;3.50;;;18.90;43.40;;;;;;5012764;28;20079;-37
2021/04/19 02:22:36;;;;;;;8.32;3.65;;;18.90;43.40;;;;;;5029028;28;20072;-39
2021/04/19 02:25:28;;;;;;;6.50;3.63;;;18.80;43.40;;;;;;5033644;28;20046;-37
2021/04/19 02:28:00;;;;;;;7.82;4.10;;;18.90;43.50;;;;;;5032501;28;20038;-37
2021/04/19 02:30:42;;;;;;;8.13;3.65;;;18.80;43.40;;;;;;5032139;28;20049;-37
2021/04/19 02:33:14;;;;;;;7.70;3.85;;;18.90;43.40;;;;;;5032400;28;20046;-37
2021/04/19 02:35:44;;;;;;;7.43;3.92;;;18.90;43.40;;;;;;5031700;28;20080;-37
2021/04/19 02:38:16;;;;;;;6.63;3.45;;;18.90;43.50;;;;;;5033460;28;20071;-38
2021/04/19 02:40:44;;;;;;;5.32;3.33;;;18.90;43.50;;;;;;5030832;28;20405;-37
2021/04/19 02:43:11;;;;;;;6.20;3.78;;;18.80;43.40;;;;;;5032196;28;20081;-36
2021/04/19 02:45:38;;;;;;;7.25;3.50;;;18.80;43.40;;;;;;5029577;28;20097;-37
2021/04/19 02:48:06;;;;;;;5.88;3.53;;;18.80;43.40;;;;;;5015798;28;20042;-38
2021/04/19 02:50:33;;;;;;;7.70;4.18;;;18.80;43.40;;;;;;5016339;28;20125;-37
2021/04/19 02:53:02;;;;;;;6.47;3.50;;;18.90;43.40;;;;;;5068904;27;20546;-37
2021/04/19 02:55:31;;;;;;;7.05;3.67;;;18.90;43.50;;;;;;5117199;27;20116;-37
2021/04/19 02:58:03;;;;;;;6.22;3.33;;;18.80;43.40;;;;;;5116410;27;20044;-37
2021/04/19 03:00:34;;;;;;;5.63;3.78;;;18.90;43.40;;;;;;5115522;28;20101;-37
2021/04/19 03:03:06;;;;;;;7.00;3.75;;;18.80;43.40;;;;;;5135380;27;20515;-37
2021/04/19 03:05:34;;;;;;;6.65;3.60;;;18.80;43.40;;;;;;5115493;28;20075;-37
2021/04/19 03:08:03;;;;;;;6.53;3.80;;;18.90;43.40;;;;;;5134856;27;20122;-37
2021/04/19 03:10:36;;;;;;;7.72;3.60;;;18.90;43.40;;;;;;5134403;27;20528;-37
2021/04/19 03:13:05;;;;;;;10.80;4.03;;;18.80;43.40;;;;;;5116440;27;20051;-37
2021/04/19 03:15:36;;;;;;;4.78;3.25;;;18.90;43.40;;;;;;5133752;27;20127;-37
2021/04/19 03:18:06;;;;;;;7.53;3.83;;;18.80;43.40;;;;;;5135764;27;20075;-37
2021/04/19 03:20:48;;;;;;;5.40;3.42;;;18.80;43.40;;;;;;5136041;27;20043;-37
2021/04/19 03:23:16;;;;;;;6.88;3.40;;;18.80;43.40;;;;;;5115054;27;20483;-37
2021/04/19 03:25:45;;;;;;;5.53;3.40;;;18.90;43.50;;;;;;5134856;27;20047;-37
2021/04/19 03:28:13;;;;;;;6.85;3.47;;;18.80;43.40;;;;;;5135811;27;20413;-37
2021/04/19 03:30:40;;;;;;;5.28;3.53;;;18.80;43.40;;;;;;5132675;27;20047;-37
2021/04/19 03:33:08;;;;;;;5.57;3.55;;;18.80;43.40;;;;;;5132816;27;20043;-38
2021/04/19 03:35:39;;;;;;;7.68;3.85;;;18.80;43.40;;;;;;5132439;27;20054;-37
2021/04/19 03:38:08;;;;;;;6.95;3.65;;;18.80;43.40;;;;;;5133229;27;20075;-37
2021/04/19 03:40:37;;;;;;;7.70;4.03;;;18.80;43.40;;;;;;5134167;27;20050;-37
2021/04/19 03:43:07;;;;;;;6.85;3.38;;;18.80;43.40;;;;;;5135621;27;20051;-37
2021/04/19 03:45:37;;;;;;;5.22;3.13;;;18.80;43.40;;;;;;5125208;27;20043;-38
2021/04/19 03:48:15;;;;;;;6.25;3.70;;;18.80;43.40;;;;;;5117092;27;20071;-38
2021/04/19 03:50:47;;;;;;;6.07;3.35;;;18.80;43.40;;;;;;5124903;27;20051;-37
2021/04/19 03:53:16;;;;;;;6.00;3.35;;;18.80;43.40;;;;;;5123875;27;20118;-37
2021/04/19 03:55:44;;;;;;;6.35;3.42;;;18.80;43.40;;;;;;5115926;28;20077;-37
2021/04/19 03:58:13;;;;;;;5.22;3.47;;;18.90;43.40;;;;;;5125457;27;20039;-37
2021/04/19 04:00:42;;;;;;;5.10;3.25;;;18.80;43.40;;;;;;5134941;27;20047;-37
2021/04/19 04:03:10;;;;;;;6.28;3.30;;;18.80;43.40;;;;;;5132378;27;20088;-37
2021/04/19 04:05:40;;;;;;;6.28;3.30;;;18.80;43.40;;;;;;5134821;27;20059;-37
2021/04/19 04:08:08;;;;;;;6.00;3.17;;;18.80;43.40;;;;;;5133344;27;20035;-37
2021/04/19 04:10:35;;;;;;;6.55;3.75;;;18.80;43.40;;;;;;5133153;27;20403;-37
2021/04/19 04:13:02;;;;;;;4.82;3.30;;;18.80;43.40;;;;;;5132224;27;20065;-37
2021/04/19 04:15:28;;;;;;;6.40;3.22;;;18.80;43.40;;;;;;5130838;27;20047;-37
2021/04/19 04:17:55;;;;;;;5.28;3.28;;;18.90;43.40;;;;;;5134062;27;20051;-38
2021/04/19 04:20:22;;;;;;;5.68;3.47;;;18.90;43.40;;;;;;5134945;27;20047;-37
2021/04/19 04:22:49;;;;;;;5.65;3.40;;;18.80;43.40;;;;;;5131564;27;20047;-37
2021/04/19 04:25:16;;;;;;;6.20;3.50;;;18.80;43.40;;;;;;5132976;27;20491;-37
2021/04/19 04:27:43;;;;;;;6.03;3.55;;;18.80;43.40;;;;;;5133303;27;20043;-49
2021/04/19 04:30:11;;;;;;;5.30;3.00;;;18.80;43.40;;;;;;5132111;27;20100;-48
2021/04/19 04:32:37;;;;;;;6.35;2.97;;;18.80;43.40;;;;;;5131611;27;20437;-48
2021/04/19 04:35:05;;;;;;;5.03;2.90;;;18.80;43.40;;;;;;5115669;27;20410;-48
2021/04/19 04:37:32;;;;;;;5.97;3.22;;;18.90;43.40;;;;;;5118595;27;20047;-52
2021/04/19 04:39:59;;;;;;;5.20;3.05;;;18.80;43.40;;;;;;5116402;27;20096;-47
2021/04/19 04:42:29;;;;;;;5.47;3.33;;;18.80;43.40;;;;;;5115898;27;20108;-54
2021/04/19 04:44:55;;;;;;;5.13;3.38;;;18.80;43.40;;;;;;5128083;27;20043;-47
2021/04/19 04:47:37;;;;;;;5.88;3.45;;;18.80;43.40;;;;;;5134039;27;20107;-47
2021/04/19 04:50:22;;;;;;;5.32;3.10;;;18.80;43.40;;;;;;5119553;27;20082;-48
2021/04/19 04:53:03;;;;;;;6.65;3.78;;;18.80;43.40;;;;;;5117069;27;20051;-48
2021/04/19 04:55:32;;;;;;;5.00;3.28;;;18.80;43.40;;;;;;5129766;27;20051;-48
2021/04/19 04:58:00;;;;;;;5.25;3.30;;;18.80;43.40;;;;;;5132802;27;20050;-50
2021/04/19 05:00:29;;;;;;;6.50;3.40;;;18.90;43.50;;;;;;5131247;27;20043;-49
2021/04/19 05:02:57;;;;;;;6.57;3.65;;;18.80;43.40;;;;;;5131099;27;20134;-52
2021/04/19 05:05:24;;;;;;;5.05;3.42;;;18.80;43.40;;;;;;5131536;27;20513;-53
2021/04/19 05:07:53;;;;;;;5.53;3.35;;;18.80;43.40;;;;;;5131990;27;20091;-52
2021/04/19 05:10:20;;;;;;;3.97;3.05;;;18.80;43.40;;;;;;5130998;27;20043;-54
2021/04/19 05:12:47;;;;;;;5.60;3.15;;;18.80;43.40;;;;;;5130931;27;20044;-53
2021/04/19 05:15:14;;;;;;;5.07;3.20;;;18.80;43.40;;;;;;5113789;27;20506;-50
2021/04/19 05:17:42;;;;;;;5.65;3.00;;;18.80;43.40;;;;;;5132309;27;20067;-50
2021/04/19 05:20:11;;;;;;;7.45;3.60;;;18.80;43.40;;;;;;5130977;27;20126;-51
2021/04/19 05:22:38;;;;;;;6.55;3.30;;;18.80;43.40;;;;;;5131036;27;20051;-51
2021/04/19 05:25:07;;;;;;;4.45;2.85;;;18.80;43.40;;;;;;5131017;27;20506;-48
2021/04/19 05:27:34;;;;;;;4.45;2.63;;;18.80;43.40;;;;;;5130726;27;20092;-48
2021/04/19 05:30:01;;;;;;;4.88;3.08;;;18.80;43.40;;;;;;5129267;27;20050;-47
2021/04/19 05:32:31;;;;;;;4.97;3.05;;;18.80;43.40;;;;;;5129298;27;20039;-49
2021/04/19 05:34:59;;;;;;;3.70;3.03;;;18.80;43.40;;;;;;5115128;27;20055;-50
2021/04/19 05:37:29;;;;;;;5.05;3.10;;;18.90;43.50;;;;;;5113573;27;20093;-48
2021/04/19 05:39:57;;;;;;;5.05;3.08;;;18.80;43.40;;;;;;5114727;27;20559;-47
2021/04/19 05:42:24;;;;;;;5.78;3.00;;;18.80;43.40;;;;;;5116107;27;20101;-50
2021/04/19 05:44:50;;;;;;;4.80;2.92;;;18.80;43.40;;;;;;5113812;27;20058;-46
2021/04/19 05:47:19;;;;;;;6.20;2.90;;;18.80;43.40;;;;;;5133511;27;20054;-46
2021/04/19 05:49:47;;;;;;;4.75;3.13;;;18.80;43.40;;;;;;5113772;27;20047;-38
2021/04/19 05:52:19;;;;;;;7.35;3.45;;;18.80;43.40;;;;;;5130767;27;20047;-37
2021/04/19 05:54:46;;;;;;;5.07;3.15;;;18.80;43.40;;;;;;5133108;27;20478;-37
2021/04/19 05:57:15;;;;;;;4.90;3.08;;;18.80;43.40;;;;;;5132743;27;20463;-37
2021/04/19 05:59:45;;;;;;;5.30;3.70;;;18.80;43.40;;;;;;5129674;27;20051;-37
2021/04/19 06:02:15;;;;;;;4.95;2.85;;;18.80;43.40;;;;;;5132294;28;20051;-38
2021/04/19 06:04:54;;;;;;;7.10;2.75;;;18.80;43.40;;;;;;5129865;28;20053;-37
2021/04/19 06:07:34;;;;;;;5.15;3.17;;;18.80;43.40;;;;;;5130166;28;20100;-38
2021/04/19 06:10:03;;;;;;;5.40;3.30;;;18.80;43.40;;;;;;5130406;28;20046;-38
2021/04/19 06:12:35;;;;;;;4.15;2.88;;;18.80;43.40;;;;;;5131733;28;20383;-37
2021/04/19 06:15:10;;;;;;;4.35;3.00;;;18.90;43.40;;;;;;5129864;28;20059;-38
2021/04/19 06:17:39;;;;;;;5.38;3.00;;;18.80;43.40;;;;;;5132588;28;20084;-37
2021/04/19 06:20:07;;;;;;;4.18;2.83;;;18.80;43.40;;;;;;5131459;28;20078;-39
2021/04/19 06:22:35;;;;;;;4.75;3.05;;;18.80;43.40;;;;;;5131123;28;20047;-39
2021/04/19 06:25:02;;;;;;;5.60;2.90;;;18.80;43.40;;;;;;5117146;28;20518;-39
2021/04/19 06:27:28;;;;;;;4.63;3.00;;;18.80;43.40;;;;;;5115345;28;20043;-39
2021/04/19 06:29:55;;;;;;;4.50;3.28;;;18.80;43.40;;;;;;5115375;28;20040;-39
2021/04/19 06:32:22;;;;;;;4.57;3.08;;;18.80;43.40;;;;;;5115551;28;20044;-39
2021/04/19 06:34:51;;;;;;;8.05;3.17;;;18.80;43.40;;;;;;5117301;28;20053;-39
2021/04/19 06:37:20;;;;;;;5.03;2.80;;;18.80;43.40;;;;;;5122733;28;20048;-39
2021/04/19 06:39:47;;;;;;;3.63;2.58;;;18.80;43.40;;;;;;5115239;28;20047;-39
2021/04/19 06:42:15;;;;;;;5.88;3.85;;;18.80;43.40;;;;;;5115794;28;20043;-39
2021/04/19 06:44:41;;;;;;;4.68;3.08;;;18.80;43.40;;;;;;5118698;28;20092;-49
2021/04/19 06:47:09;;;;;;;5.35;3.00;;;18.80;43.40;;;;;;5130825;28;20043;-51
2021/04/19 06:49:39;;;;;;;5.82;3.33;;;18.90;43.50;;;;;;5128772;28;20067;-52
2021/04/19 06:52:06;;;;;;;4.78;3.22;;;18.80;43.40;;;;;;5112672;28;20051;-51
2021/04/19 06:54:33;;;;;;;6.07;2.85;;;18.80;43.40;;;;;;5115186;28;20092;-50
2021/04/19 06:57:01;;;;;;;3.97;2.80;;;18.80;43.40;;;;;;5115581;28;20100;-51
2021/04/19 06:59:29;;;;;;;5.45;3.03;;;18.80;43.40;;;;;;5114027;28;20501;-48
2021/04/19 07:01:56;;;;;;;3.25;2.70;;;18.80;43.40;;;;;;5114872;28;20475;-47
2021/04/19 07:04:25;;;;;;;4.85;2.90;;;18.90;43.40;;;;;;5112753;28;20498;-51
2021/04/19 07:06:52;;;;;;;4.13;3.22;;;18.80;43.40;;;;;;5114174;28;20055;-47
2021/04/19 07:09:28;;;;;;;6.07;2.97;;;18.80;43.40;;;;;;5115760;27;20410;-50
2021/04/19 07:12:13;;;;;;;4.05;2.63;;;18.80;43.40;;;;;;5134482;27;20047;-48
2021/04/19 07:14:39;;;;;;;;;;;18.80;43.60;;;;;;5134490;27;20047;-48
2021/04/19 07:17:08;;;;;;;4.85;3.00;;;18.80;43.40;;;;;;5134160;27;19968;-38
2021/04/19 07:19:35;;;;;;;3.95;2.92;;;18.80;43.40;;;;;;5116477;27;20083;-37
2021/04/19 07:22:05;;;;;;;6.05;2.90;;;18.80;43.40;;;;;;5134171;27;20126;-37
2021/04/19 07:24:35;;;;;;;5.22;2.85;;;18.80;43.40;;;;;;5135676;27;20051;-38
2021/04/19 07:27:03;;;;;;;4.60;2.70;;;18.80;43.40;;;;;;5119434;27;20050;-39
2021/04/19 07:29:30;;;;;;;5.07;2.78;;;18.80;43.40;;;;;;5131704;27;20047;-38
2021/04/19 07:31:58;;;;;;;4.45;2.97;;;18.80;43.40;;;;;;5135494;27;20046;-38
2021/04/19 07:34:30;;;;;;;4.05;2.80;;;18.80;43.40;;;;;;5120702;27;20108;-38
2021/04/19 07:37:06;;;;;;;4.47;3.08;;;18.90;43.40;;;;;;5130681;27;20096;-37
2021/04/19 07:39:41;;;;;;;6.55;2.88;;;18.80;43.40;;;;;;5132853;27;20100;-38
2021/04/19 07:42:11;;;;;;;3.55;2.50;;;18.90;43.40;;;;;;5120301;27;20104;-37
2021/04/19 07:44:46;;;;;;;4.85;3.17;;;18.90;43.40;;;;;;5128852;27;20047;-38
2021/04/19 07:47:27;;;;;;;4.50;3.00;;;18.90;43.40;;;;;;5132549;27;20047;-37
2021/04/19 07:50:00;;;;;;;3.28;2.83;;;18.90;43.40;;;;;;5135261;27;20460;-38
2021/04/19 07:52:31;;;;;;;4.37;2.77;;;18.80;43.30;;;;;;5135258;27;20047;-37
2021/04/19 07:55:13;;;;;;;6.40;3.00;;;18.90;43.40;;;;;;5133839;27;20074;-37
2021/04/19 07:58:03;;;;;;;3.97;2.85;;;18.90;43.40;;;;;;5134072;27;20061;-38
2021/04/19 08:00:35;;;;;;;5.18;2.80;;;18.90;43.40;;;;;;5134188;27;20070;-38
2021/04/19 08:03:16;;;;;;;5.90;3.10;;;18.90;43.40;;;;;;5135410;27;20130;-38
2021/04/19 08:05:52;;;;;;;4.35;2.92;;;18.90;43.40;;;;;;5133774;27;20497;-39
2021/04/19 08:08:29;;;;;;;5.05;2.67;;;18.90;43.40;;;;;;5134883;27;20059;-38
2021/04/19 08:11:07;;;;;;;4.03;2.75;;;18.90;43.40;;;;;;5132848;27;20092;-38
2021/04/19 08:13:34;;;;;;;5.40;2.90;;;18.90;43.40;;;;;;5132466;27;20423;-38
2021/04/19 08:16:14;;;;;;;5.20;2.95;;;18.90;43.40;;;;;;5134778;27;20126;-39
2021/04/19 08:18:42;;;;;;;4.65;2.75;;;18.90;43.40;;;;;;5115250;27;20048;-39
2021/04/19 08:21:11;;;;;;;4.28;2.85;;;18.90;43.40;;;;;;5115360;27;20452;-38
2021/04/19 08:23:46;;;;;;;4.55;2.70;;;18.90;43.40;;;;;;5134458;27;20537;-38
2021/04/19 08:26:12;;;;;;;4.60;3.10;;;18.90;43.40;;;;;;5116407;27;20048;-38
2021/04/19 08:28:44;;;;;;;5.30;3.03;;;18.90;43.40;;;;;;5115866;27;20048;-38
2021/04/19 08:31:11;;;;;;;4.13;2.47;;;18.90;43.40;;;;;;5115905;27;20108;-38
2021/04/19 08:33:38;;;;;;;3.92;2.72;;;18.90;43.40;;;;;;5132645;27;20047;-38
2021/04/19 08:36:09;;;;;;;4.72;2.80;;;18.90;43.40;;;;;;5131371;27;20424;-39
2021/04/19 08:38:37;;;;;;;4.22;2.78;;;18.90;43.40;;;;;;5131451;27;20048;-38
2021/04/19 08:41:05;;;;;;;3.90;2.47;;;18.90;43.40;;;;;;5131519;27;20043;-39
2021/04/19 08:43:37;;;;;;;3.58;2.42;;;18.90;43.40;;;;;;5131570;27;20047;-39
2021/04/19 08:46:05;;;;;;;3.40;2.58;;;18.90;43.40;;;;;;5134222;27;20044;-39
2021/04/19 08:48:32;;;;;;;4.72;3.20;;;18.90;43.40;;;;;;5131358;27;20043;-38
2021/04/19 08:51:04;;;;;;;4.07;2.97;;;18.90;43.40;;;;;;5132039;27;20047;-37
2021/04/19 08:53:31;;;;;;;4.20;2.85;;;18.90;43.40;;;;;;5131026;27;20406;-38
2021/04/19 08:56:02;;;;;;;3.47;2.72;;;18.90;43.40;;;;;;5132990;27;20091;-38
2021/04/19 08:58:33;;;;;;;3.70;2.97;;;18.90;43.40;;;;;;5131094;27;20047;-37
2021/04/19 09:01:01;;;;;;;3.92;2.88;;;18.90;43.40;;;;;;5132162;27;20051;-38
2021/04/19 09:03:28;;;;;;;4.45;2.58;;;18.90;43.40;;;;;;5132378;27;20493;-38
2021/04/19 09:05:55;;;;;;;3.65;2.53;;;18.90;43.40;;;;;;5132067;27;20051;-39
2021/04/19 09:08:23;;;;;;;4.45;2.75;;;18.90;43.40;;;;;;5132014;27;20051;-38
2021/04/19 09:11:05;;;;;;;4.90;2.97;;;18.90;43.40;;;;;;5127771;27;20047;-39
2021/04/19 09:13:42;;;;;;;4.32;2.90;;;18.90;43.40;;;;;;5121556;27;20100;-39
2021/04/19 09:16:24;;;;;;;3.58;2.53;;;18.90;43.40;;;;;;5126067;27;20491;-38
2021/04/19 09:18:54;;;;;;;3.70;2.50;;;18.90;43.40;;;;;;5116493;27;20055;-37
2021/04/19 09:21:35;;;;;;;4.28;2.90;;;18.90;43.40;;;;;;5121442;27;20078;-37
2021/04/19 09:24:04;;;;;;;4.03;2.78;;;18.90;43.40;;;;;;5130605;27;20046;-37
2021/04/19 09:26:44;;;;;;;3.28;2.45;;;18.90;43.40;;;;;;5130841;27;20104;-37
2021/04/19 09:29:37;;;;;;;5.00;2.92;;;18.90;43.40;;;;;;5130820;27;20398;-37
2021/04/19 09:32:10;;;;;;;4.10;2.70;;;18.90;43.40;;;;;;5122553;27;20096;-38
2021/04/19 09:34:44;;;;;;;3.08;2.50;;;18.90;43.40;;;;;;5125753;27;20117;-38
2021/04/19 09:37:14;;;;;;;3.40;2.50;;;18.90;43.40;;;;;;5132227;27;20441;-37
2021/04/19 09:40:05;;;;;;;3.38;2.55;;;18.90;43.40;;;;;;5132972;27;20063;-37
2021/04/19 09:43:02;;;;;;;4.63;2.80;;;18.90;43.50;;;;;;5129414;27;20055;-38
2021/04/19 09:45:41;;;;;;;3.10;2.40;;;18.90;43.40;;;;;;5130371;27;20051;-37
2021/04/19 09:48:28;;;;;;;4.00;2.60;;;18.90;43.40;;;;;;5132581;27;20401;-38
2021/04/19 09:51:00;;;;;;;3.33;2.60;;;18.90;43.50;;;;;;5130930;27;20047;-39
2021/04/19 09:53:28;;;;;;;2.95;2.28;;;18.90;43.40;;;;;;5132948;27;20104;-38
2021/04/19 09:55:56;;;;;;;3.92;2.72;;;18.90;43.50;;;;;;5132835;27;20039;-38
2021/04/19 09:58:23;;;;;;;3.60;2.83;;;18.90;43.40;;;;;;5132680;27;20050;-39
2021/04/19 10:01:08;;;;;;;3.70;2.75;;;18.90;43.50;;;;;;5132727;27;20116;-38
2021/04/19 10:03:37;;;;;;;3.10;2.45;;;18.90;43.50;;;;;;5116500;27;20050;-38
2021/04/19 10:06:05;;;;;;;3.58;2.67;;;18.90;43.40;;;;;;5116200;27;20130;-38
2021/04/19 10:08:40;;;;;;;4.32;2.67;;;18.90;43.50;;;;;;5115935;27;20096;-39
2021/04/19 10:11:09;;;;;;;4.07;2.65;;;18.90;43.50;;;;;;5130744;28;20074;-38
2021/04/19 10:13:37;;;;;;;3.40;2.60;;;18.90;43.50;;;;;;5132305;28;20535;-38
2021/04/19 10:16:10;;;;;;;3.03;2.30;;;18.90;43.50;;;;;;5119522;28;20433;-38
2021/04/19 10:18:39;;;;;;;5.05;2.90;;;18.90;43.50;;;;;;5115728;28;20074;-38
2021/04/19 10:21:09;;;;;;;2.75;2.03;;;18.90;43.40;;;;;;5125540;28;20506;-39
2021/04/19 10:23:43;;;;;;;5.10;2.70;;;18.90;43.40;;;;;;5132281;28;20513;-38
2021/04/19 10:26:11;;;;;;;2.95;2.15;;;18.90;43.40;;;;;;5119622;28;20063;-38
2021/04/19 10:28:41;;;;;;;3.13;2.50;;;18.90;43.40;;;;;;5123642;28;20043;-39
2021/04/19 10:31:14;;;;;;;3.40;2.60;;;18.90;43.40;;;;;;5129859;28;20077;-39
2021/04/19 10:33:43;;;;;;;3.42;2.70;;;18.90;43.40;;;;;;5129833;28;20558;-39
2021/04/19 10:36:20;;;;;;;3.25;2.58;;;18.90;43.40;;;;;;5129086;28;20119;-38
2021/04/19 10:38:51;;;;;;;3.25;2.65;;;18.90;43.40;;;;;;5132645;28;20055;-39
2021/04/19 10:41:39;;;;;;;3.58;2.80;;;18.90;43.40;;;;;;5129989;28;20043;-39
2021/04/19 10:44:08;;;;;;;2.78;2.17;;;18.90;43.40;;;;;;5133167;27;20498;-39
2021/04/19 10:46:38;;;;;;;3.75;2.67;;;18.90;43.40;;;;;;5135074;27;20051;-39
2021/04/19 10:49:06;;;;;;;3.92;2.40;;;18.90;43.40;;;;;;5134074;27;20073;-39
2021/04/19 10:51:37;;;;;;;2.80;2.33;;;18.90;43.40;;;;;;5136163;27;20061;-39
2021/04/19 10:54:10;;;;;;;4.00;2.50;;;18.90;43.40;;;;;;5136357;27;20043;-39
2021/04/19 10:56:42;;;;;;;3.55;2.67;;;18.90;43.40;;;;;;5133694;27;20411;-39
2021/04/19 10:59:11;;;;;;;3.67;2.72;;;18.90;43.40;;;;;;5136214;27;20035;-39
2021/04/19 11:01:41;;;;;;;3.63;2.60;;;18.90;43.40;;;;;;5126915;27;20048;-39
2021/04/19 11:04:09;;;;;;;3.70;2.65;;;18.90;44.00;;;;;;5119554;27;20388;-39
2021/04/19 11:06:38;;;;;;;3.00;2.08;;;18.90;43.40;;;;;;5118956;27;20495;-39
2021/04/19 11:09:16;;;;;;;3.78;2.70;;;18.90;43.40;;;;;;5125546;27;20046;-39
2021/04/19 11:11:45;;;;;;;2.80;2.25;;;18.90;43.40;;;;;;5133747;27;20043;-37
2021/04/19 11:14:18;;;;;;;5.07;3.00;;;18.90;43.40;;;;;;5135752;27;20051;-37
2021/04/19 11:17:08;;;;;;;5.80;2.95;;;18.90;43.40;;;;;;5133356;27;20043;-37
2021/04/19 11:19:41;;;;;;;2.72;2.33;;;18.90;43.40;;;;;;5132362;27;20107;-37
2021/04/19 11:22:21;;;;;;;2.78;2.33;;;18.90;43.40;;;;;;5134992;27;20051;-38
2021/04/19 11:25:28;;;;;;;4.57;2.85;;;18.90;43.40;;;;;;5133434;27;20050;-38
2021/04/19 11:28:17;;;;;;;3.13;2.50;;;18.90;43.40;;;;;;5132947;27;20482;-37
2021/04/19 11:30:43;;;;;;;3.67;2.28;;;18.90;43.40;;;;;;5115949;27;20093;-38
2021/04/19 11:33:13;;;;;;;3.47;2.20;;;18.90;43.40;;;;;;5132956;27;20502;-37
2021/04/19 11:35:41;;;;;;;2.90;2.60;;;18.90;43.50;;;;;;5132274;27;20242;-38
2021/04/19 11:38:22;;;;;;;2.47;2.25;;;18.90;43.50;;;;;;5135548;27;20047;-38
2021/04/19 11:41:05;;;;;;;2.88;2.40;;;18.90;43.50;;;;;;5133343;27;20057;-38
2021/04/19 11:43:37;;;;;;;4.75;2.50;;;18.90;43.50;;;;;;5132158;27;20051;-37
2021/04/19 11:46:10;;;;;;;4.03;2.30;;;18.90;43.40;;;;;;5135687;27;20466;-38
2021/04/19 11:48:40;;;;;;;4.75;2.80;;;18.90;43.40;;;;;;5133797;27;20043;-37
2021/04/19 11:51:09;;;;;;;2.95;2.25;;;18.90;43.50;;;;;;5135188;27;20047;-38
2021/04/19 11:53:39;;;;;;;2.75;2.45;;;18.90;43.40;;;;;;5133737;27;20517;-39
2021/04/19 11:56:08;;;;;;;3.60;2.78;;;18.90;43.40;;;;;;5103108;28;20067;-38
2021/04/19 11:58:41;;;;;;;3.95;2.80;;;18.90;43.50;;;;;;5129689;27;20047;-38
2021/04/19 12:01:15;;;;;;;2.95;2.45;;;18.90;43.50;;;;;;5122071;27;20051;-38
2021/04/19 12:03:42;;;;;;;3.28;2.70;;;18.90;43.50;;;;;;5129645;27;20529;-38
2021/04/19 12:06:12;;;;;;;3.40;2.80;;;18.90;43.50;;;;;;5135179;27;20055;-37
2021/04/19 12:08:42;;;;;;;3.40;2.30;;;18.90;43.50;;;;;;5134760;27;20047;-37
2021/04/19 12:11:16;;;;;;;2.90;2.30;;;18.90;43.50;;;;;;5132538;27;20447;-38
2021/04/19 12:13:43;;;;;;;3.28;2.70;;;18.90;43.50;;;;;;5131962;27;20047;-38
2021/04/19 12:16:12;;;;;;;3.42;2.58;;;18.90;43.50;;;;;;5132511;27;20039;-38
2021/04/19 12:18:39;;;;;;;3.35;2.50;;;18.90;43.50;;;;;;5132278;27;20119;-37
2021/04/19 12:21:07;;;;;;;3.85;2.70;;;18.90;43.50;;;;;;5134672;27;20114;-38
2021/04/19 12:23:35;;;;;;;3.40;2.25;;;18.90;43.40;;;;;;5134396;27;20134;-38
2021/04/19 12:26:02;;;;;;;3.22;2.55;;;18.90;43.50;;;;;;5133213;27;20047;-38
2021/04/19 12:28:50;;;;;;;3.60;2.30;;;18.90;43.40;;;;;;5133815;27;20128;-39
2021/04/19 12:31:16;;;;;;;2.70;2.28;;;18.90;43.40;;;;;;5132124;27;20055;-39
2021/04/19 12:33:44;;;;;;;3.42;2.55;;;18.90;44.00;;;;;;5134265;27;20064;-38
2021/04/19 12:36:12;;;;;;;2.97;2.20;;;18.90;43.50;;;;;;5131796;27;20047;-39
2021/04/19 12:38:39;;;;;;;3.10;2.40;;;18.90;43.40;;;;;;5131178;27;20119;-39
2021/04/19 12:41:06;;;;;;;3.30;2.60;;;18.90;43.40;;;;;;5134722;27;20095;-38
2021/04/19 12:43:33;;;;;;;2.75;2.35;;;18.90;43.40;;;;;;5132839;27;20044;-38
2021/04/19 12:46:00;;;;;;;3.03;2.33;;;18.90;43.40;;;;;;5131586;27;20085;-39
2021/04/19 12:48:26;;;;;;;3.38;2.42;;;18.90;43.50;;;;;;5134042;27;20043;-39
2021/04/19 12:50:53;;;;;;;3.35;2.50;;;18.90;43.50;;;;;;5134176;27;20047;-38
2021/04/19 12:53:20;;;;;;;2.72;2.20;;;18.90;43.40;;;;;;5116015;27;20040;-38
2021/04/19 12:55:46;;;;;;;3.20;2.60;;;18.90;43.50;;;;;;5115876;27;20104;-38
2021/04/19 12:58:15;;;;;;;4.28;2.03;;;18.90;43.40;;;;;;5115056;27;20051;-38
2021/04/19 13:00:42;;;;;;;3.47;2.60;;;18.90;43.40;;;;;;5115114;27;20051;-38
2021/04/19 13:03:10;;;;;;;3.08;2.35;;;18.90;43.40;;;;;;5117125;27;20047;-38
2021/04/19 13:05:39;;;;;;;3.38;2.15;;;18.90;43.50;;;;;;5116712;27;20333;-38
2021/04/19 13:08:06;;;;;;;3.08;2.45;;;18.90;43.50;;;;;;5115182;27;20564;-38